createdAt,value
2016-07-08T00:00:01.954Z,0
2016-07-08T00:01:01.850Z,0
2016-07-08T00:02:01.859Z,0
2016-07-08T00:03:01.859Z,0
2016-07-08T00:04:01.829Z,0
2016-07-08T00:05:01.860Z,0
2016-07-08T00:06:01.844Z,0
2016-07-08T00:07:01.848Z,0
2016-07-08T00:08:01.849Z,0
2016-07-08T00:09:01.898Z,0
2016-07-08T00:10:01.861Z,0
2016-07-08T00:11:01.857Z,0
2016-07-08T00:12:01.855Z,0
2016-07-08T00:13:01.878Z,0
2016-07-08T00:14:01.832Z,0
2016-07-08T00:15:01.894Z,0
2016-07-08T00:16:01.855Z,0
2016-07-08T00:17:01.906Z,0
2016-07-08T00:18:01.848Z,0
2016-07-08T00:19:01.808Z,0
2016-07-08T00:20:01.890Z,0
2016-07-08T00:21:01.861Z,0
2016-07-08T00:22:01.839Z,0
2016-07-08T00:23:01.859Z,0
2016-07-08T00:24:01.855Z,0
2016-07-08T00:25:01.871Z,0
2016-07-08T00:26:01.880Z,0
2016-07-08T00:27:01.848Z,0
2016-07-08T00:28:01.825Z,0
2016-07-08T00:29:01.931Z,0
2016-07-08T00:30:01.908Z,0
2016-07-08T00:31:01.887Z,0
2016-07-08T00:32:01.861Z,0
2016-07-08T00:33:01.859Z,0
2016-07-08T00:34:01.916Z,0
2016-07-08T00:35:01.842Z,0
2016-07-08T00:36:01.854Z,0
2016-07-08T00:37:01.875Z,0
2016-07-08T00:38:01.904Z,0
2016-07-08T00:39:01.859Z,0
2016-07-08T00:40:01.898Z,0
2016-07-08T00:41:01.885Z,0
2016-07-08T00:42:01.873Z,0
2016-07-08T00:43:01.877Z,0
2016-07-08T00:44:01.862Z,0
2016-07-08T00:45:01.877Z,0
2016-07-08T00:46:01.884Z,0
2016-07-08T00:47:01.836Z,0
2016-07-08T00:48:01.904Z,0
2016-07-08T00:49:01.902Z,0
2016-07-08T00:50:01.835Z,0
2016-07-08T00:51:01.889Z,0
2016-07-08T00:52:01.879Z,0
2016-07-08T00:53:01.839Z,0
2016-07-08T00:54:01.874Z,0
2016-07-08T00:55:02.000Z,0
2016-07-08T00:56:01.885Z,0
2016-07-08T00:57:01.900Z,0
2016-07-08T00:58:01.866Z,0
2016-07-08T00:59:05.967Z,0
2016-07-08T01:00:01.901Z,0
2016-07-08T01:01:01.888Z,0
2016-07-08T01:02:01.864Z,0
2016-07-08T01:03:01.869Z,0
2016-07-08T01:04:01.874Z,0
2016-07-08T01:05:01.903Z,0
2016-07-08T01:06:01.885Z,0
2016-07-08T01:07:01.929Z,0
2016-07-08T01:08:02.115Z,0
2016-07-08T01:09:02.247Z,0
2016-07-08T01:10:01.966Z,0
2016-07-08T01:11:01.923Z,0
2016-07-08T01:12:01.866Z,0
2016-07-08T01:13:01.835Z,0
2016-07-08T01:14:01.850Z,0
2016-07-08T01:15:01.903Z,0
2016-07-08T01:16:01.923Z,0
2016-07-08T01:17:01.886Z,0
2016-07-08T01:18:01.871Z,0
2016-07-08T01:19:01.897Z,0
2016-07-08T01:20:01.904Z,0
2016-07-08T01:21:01.894Z,0
2016-07-08T01:22:01.890Z,0
2016-07-08T01:23:01.895Z,0
2016-07-08T01:24:01.887Z,0
2016-07-08T01:25:01.880Z,0
2016-07-08T01:26:01.870Z,0
2016-07-08T01:27:01.892Z,0
2016-07-08T01:28:01.886Z,0
2016-07-08T01:29:01.859Z,0
2016-07-08T01:30:01.903Z,0
2016-07-08T01:31:01.919Z,0
2016-07-08T01:32:01.887Z,0
2016-07-08T01:33:01.882Z,0
2016-07-08T01:34:01.907Z,0
2016-07-08T01:35:01.922Z,0
2016-07-08T01:36:01.919Z,0
2016-07-08T01:37:01.930Z,0
2016-07-08T01:38:01.888Z,0
2016-07-08T01:39:01.902Z,0
2016-07-08T01:40:01.900Z,0
2016-07-08T01:41:01.862Z,0
2016-07-08T01:42:01.877Z,0
2016-07-08T01:43:01.908Z,0
2016-07-08T01:44:01.884Z,0
2016-07-08T01:45:01.934Z,0
2016-07-08T01:46:01.885Z,0
2016-07-08T01:47:01.930Z,0
2016-07-08T01:48:01.866Z,0
2016-07-08T01:49:01.938Z,0
2016-07-08T01:50:01.907Z,0
2016-07-08T01:51:01.904Z,0
2016-07-08T01:52:01.893Z,0
2016-07-08T01:53:01.887Z,0
2016-07-08T01:54:01.940Z,0
2016-07-08T01:55:01.897Z,0
2016-07-08T01:56:01.901Z,0
2016-07-08T01:57:01.924Z,0
2016-07-08T01:58:01.933Z,0
2016-07-08T01:59:01.895Z,0
2016-07-08T02:00:01.922Z,0
2016-07-08T02:01:01.951Z,0
2016-07-08T02:02:01.900Z,0
2016-07-08T02:03:01.889Z,0
2016-07-08T02:04:01.890Z,0
2016-07-08T02:05:01.959Z,0
2016-07-08T02:06:01.959Z,0
2016-07-08T02:07:01.922Z,0
2016-07-08T02:08:01.908Z,0
2016-07-08T02:09:01.905Z,0
2016-07-08T02:10:01.914Z,0
2016-07-08T02:11:01.924Z,0
2016-07-08T02:12:01.914Z,0
2016-07-08T02:13:01.901Z,0
2016-07-08T02:14:01.922Z,0
2016-07-08T02:15:01.907Z,0
2016-07-08T02:16:01.949Z,0
2016-07-08T02:17:01.952Z,0
2016-07-08T02:18:01.926Z,0
2016-07-08T02:19:01.892Z,0
2016-07-08T02:20:01.903Z,0
2016-07-08T02:21:01.922Z,0
2016-07-08T02:22:01.900Z,0
2016-07-08T02:23:01.933Z,0
2016-07-08T02:24:01.941Z,0
2016-07-08T02:25:01.859Z,0
2016-07-08T02:26:01.922Z,0
2016-07-08T02:27:01.944Z,0
2016-07-08T02:28:01.926Z,0
2016-07-08T02:29:01.928Z,0
2016-07-08T02:30:02.030Z,0
2016-07-08T02:31:01.947Z,0
2016-07-08T02:32:01.912Z,0
2016-07-08T02:33:01.916Z,0
2016-07-08T02:34:01.947Z,0
2016-07-08T02:35:01.942Z,0
2016-07-08T02:36:01.905Z,0
2016-07-08T02:37:01.893Z,0
2016-07-08T02:38:01.922Z,0
2016-07-08T02:39:01.916Z,0
2016-07-08T02:40:01.912Z,0
2016-07-08T02:41:01.918Z,0
2016-07-08T02:42:01.907Z,0
2016-07-08T02:43:01.934Z,0
2016-07-08T02:44:01.967Z,0
2016-07-08T02:45:01.904Z,4
2016-07-08T02:46:01.963Z,4
2016-07-08T02:47:01.927Z,4
2016-07-08T02:48:01.931Z,4
2016-07-08T02:49:01.956Z,4
2016-07-08T02:50:02.011Z,0
2016-07-08T02:51:01.896Z,4
2016-07-08T02:52:01.954Z,4
2016-07-08T02:53:01.951Z,4
2016-07-08T02:54:01.998Z,4
2016-07-08T02:55:01.932Z,4
2016-07-08T02:56:01.932Z,8
2016-07-08T02:57:01.910Z,4
2016-07-08T02:58:01.974Z,8
2016-07-08T02:59:02.014Z,8
2016-07-08T03:00:01.989Z,12
2016-07-08T03:01:01.926Z,12
2016-07-08T03:02:01.932Z,12
2016-07-08T03:03:01.906Z,16
2016-07-08T03:04:01.938Z,16
2016-07-08T03:05:01.975Z,20
2016-07-08T03:06:01.903Z,20
2016-07-08T03:07:01.941Z,20
2016-07-08T03:08:01.957Z,24
2016-07-08T03:09:01.979Z,24
2016-07-08T03:10:01.957Z,28
2016-07-08T03:11:01.916Z,32
2016-07-08T03:12:01.956Z,40
2016-07-08T03:13:01.963Z,40
2016-07-08T03:14:01.951Z,48
2016-07-08T03:15:01.971Z,48
2016-07-08T03:16:01.926Z,52
2016-07-08T03:17:01.946Z,56
2016-07-08T03:18:01.961Z,56
2016-07-08T03:19:01.955Z,60
2016-07-08T03:20:01.992Z,68
2016-07-08T03:21:01.950Z,68
2016-07-08T03:22:01.958Z,68
2016-07-08T03:23:01.950Z,72
2016-07-08T03:24:01.958Z,80
2016-07-08T03:25:01.979Z,84
2016-07-08T03:26:01.941Z,88
2016-07-08T03:27:01.896Z,92
2016-07-08T03:28:01.939Z,100
2016-07-08T03:29:01.991Z,104
2016-07-08T03:30:02.012Z,116
2016-07-08T03:31:01.947Z,124
2016-07-08T03:32:01.970Z,136
2016-07-08T03:33:01.973Z,148
2016-07-08T03:34:02.004Z,160
2016-07-08T03:35:01.931Z,176
2016-07-08T03:36:01.953Z,196
2016-07-08T03:37:01.931Z,216
2016-07-08T03:38:01.937Z,232
2016-07-08T03:39:01.955Z,248
2016-07-08T03:40:01.957Z,268
2016-07-08T03:41:01.938Z,288
2016-07-08T03:42:01.979Z,308
2016-07-08T03:43:01.976Z,328
2016-07-08T03:44:01.954Z,340
2016-07-08T03:45:02.009Z,344
2016-07-08T03:46:01.967Z,344
2016-07-08T03:47:01.959Z,344
2016-07-08T03:48:01.992Z,336
2016-07-08T03:49:01.980Z,336
2016-07-08T03:50:01.999Z,340
2016-07-08T03:51:02.021Z,348
2016-07-08T03:52:01.970Z,364
2016-07-08T03:53:02.002Z,384
2016-07-08T03:54:02.005Z,392
2016-07-08T03:55:01.989Z,400
2016-07-08T03:56:01.948Z,412
2016-07-08T03:57:01.972Z,428
2016-07-08T03:58:01.976Z,444
2016-07-08T03:59:01.969Z,464
2016-07-08T04:00:02.001Z,480
2016-07-08T04:01:01.948Z,504
2016-07-08T04:02:01.982Z,528
2016-07-08T04:03:01.959Z,564
2016-07-08T04:04:01.961Z,624
2016-07-08T04:05:01.989Z,700
2016-07-08T04:06:01.987Z,768
2016-07-08T04:07:01.924Z,844
2016-07-08T04:08:01.975Z,928
2016-07-08T04:09:01.968Z,1020
2016-07-08T04:10:01.960Z,1136
2016-07-08T04:11:01.982Z,1288
2016-07-08T04:12:01.956Z,1488
2016-07-08T04:13:01.978Z,1620
2016-07-08T04:14:01.944Z,1696
2016-07-08T04:15:01.976Z,1704
2016-07-08T04:16:01.973Z,1616
2016-07-08T04:17:01.992Z,1480
2016-07-08T04:18:02.007Z,1368
2016-07-08T04:19:01.957Z,1316
2016-07-08T04:20:02.001Z,1340
2016-07-08T04:21:01.948Z,1400
2016-07-08T04:22:02.001Z,1444
2016-07-08T04:23:01.982Z,1436
2016-07-08T04:24:01.985Z,1384
2016-07-08T04:25:02.012Z,1400
2016-07-08T04:26:02.051Z,1516
2016-07-08T04:27:02.004Z,1700
2016-07-08T04:28:02.003Z,1968
2016-07-08T04:29:01.972Z,2368
2016-07-08T04:30:01.990Z,2876
2016-07-08T04:31:01.965Z,3240
2016-07-08T04:32:01.973Z,3624
2016-07-08T04:33:01.963Z,3928
2016-07-08T04:34:01.983Z,4080
2016-07-08T04:35:01.951Z,5636
2016-07-08T04:36:01.971Z,6976
2016-07-08T04:37:02.016Z,7560
2016-07-08T04:38:01.980Z,7444
2016-07-08T04:39:01.974Z,5640
2016-07-08T04:40:01.975Z,5696
2016-07-08T04:41:01.991Z,6032
2016-07-08T04:42:02.010Z,6180
2016-07-08T04:43:02.017Z,6320
2016-07-08T04:44:01.968Z,6448
2016-07-08T04:45:02.018Z,7392
2016-07-08T04:46:02.020Z,10780
2016-07-08T04:47:01.988Z,10804
2016-07-08T04:48:01.986Z,10560
2016-07-08T04:49:02.037Z,9980
2016-07-08T04:50:01.963Z,9384
2016-07-08T04:51:01.992Z,9864
2016-07-08T05:04:02.351Z,6736
2016-07-08T05:04:18.965Z,6892
2016-07-08T05:05:18.783Z,7756
2016-07-08T05:06:18.847Z,9616
2016-07-08T05:07:18.788Z,9424
2016-07-08T05:08:18.771Z,6448
2016-07-08T05:09:18.839Z,6396
2016-07-08T05:10:18.800Z,10968
2016-07-08T05:11:18.757Z,10200
2016-07-08T05:12:18.775Z,7472
2016-07-08T05:13:18.778Z,9304
2016-07-08T05:14:18.753Z,6628
2016-07-08T05:15:18.775Z,4300
2016-07-08T05:16:18.788Z,4256
2016-07-08T05:17:18.762Z,4188
2016-07-08T05:18:18.907Z,4080
2016-07-08T05:19:18.802Z,3824
2016-07-08T05:20:18.801Z,3820
2016-07-08T05:21:18.798Z,3688
2016-07-08T05:22:18.779Z,3576
2016-07-08T05:23:18.781Z,3488
2016-07-08T05:24:18.836Z,3540
2016-07-08T05:25:18.780Z,3752
2016-07-08T05:26:18.793Z,4092
2016-07-08T05:27:18.793Z,4588
2016-07-08T05:28:18.845Z,5200
2016-07-08T05:29:18.803Z,8748
2016-07-08T05:30:18.858Z,5956
2016-07-08T05:31:18.802Z,6708
2016-07-08T05:32:18.806Z,6652
2016-07-08T05:33:18.836Z,4360
2016-07-08T05:34:18.823Z,4036
2016-07-08T05:35:18.805Z,3916
2016-07-08T05:36:18.803Z,4592
2016-07-08T05:37:18.862Z,4052
2016-07-08T05:38:18.857Z,3824
2016-07-08T05:39:18.783Z,3992
2016-07-08T05:40:18.834Z,4224
2016-07-08T05:41:18.796Z,4548
2016-07-08T05:42:18.789Z,4944
2016-07-08T05:43:18.838Z,5292
2016-07-08T05:44:18.864Z,5636
2016-07-08T05:45:18.810Z,5976
2016-07-08T05:46:18.781Z,6356
2016-07-08T05:47:18.825Z,6704
2016-07-08T05:48:18.838Z,7136
2016-07-08T05:49:18.837Z,6864
2016-07-08T05:50:18.779Z,6008
2016-07-08T05:51:18.780Z,5512
2016-07-08T05:52:18.830Z,5224
2016-07-08T05:53:18.756Z,5120
2016-07-08T05:54:18.783Z,4692
2016-07-08T05:55:18.847Z,4252
2016-07-08T05:56:18.864Z,3848
2016-07-08T05:57:18.811Z,3532
2016-07-08T05:58:20.208Z,3328
2016-07-08T05:59:19.118Z,3280
2016-07-08T06:00:18.818Z,3348
2016-07-08T06:01:18.853Z,3452
2016-07-08T06:02:18.827Z,3552
2016-07-08T06:03:18.845Z,3708
2016-07-08T06:04:18.957Z,3964
2016-07-08T06:05:18.837Z,4316
2016-07-08T06:06:18.792Z,4600
2016-07-08T06:07:18.870Z,4912
2016-07-08T06:08:18.824Z,5300
2016-07-08T06:09:18.811Z,5648
2016-07-08T06:10:18.899Z,5960
2016-07-08T06:11:18.866Z,6072
2016-07-08T06:12:18.845Z,5972
2016-07-08T06:13:18.798Z,5868
2016-07-08T06:14:18.755Z,5840
2016-07-08T06:15:18.789Z,5908
2016-07-08T06:16:18.856Z,5888
2016-07-08T06:17:18.843Z,5868
2016-07-08T06:18:18.928Z,5800
2016-07-08T06:19:18.820Z,6056
2016-07-08T06:20:19.009Z,6492
2016-07-08T06:21:18.785Z,7352
2016-07-08T06:22:18.834Z,8316
2016-07-08T06:23:18.824Z,9072
2016-07-08T06:24:18.873Z,10896
2016-07-08T06:25:18.876Z,9876
2016-07-08T06:26:18.847Z,8152
2016-07-08T06:27:18.843Z,7736
2016-07-08T06:28:18.865Z,7680
2016-07-08T06:29:18.857Z,7800
2016-07-08T06:30:18.831Z,8500
2016-07-08T06:31:18.856Z,9608
2016-07-08T06:32:19.089Z,11260
2016-07-08T06:33:19.512Z,12288
2016-07-08T06:34:18.899Z,13484
2016-07-08T06:35:18.854Z,14596
2016-07-08T06:36:18.922Z,15300
2016-07-08T06:37:18.839Z,16096
2016-07-08T06:38:18.904Z,15712
2016-07-08T06:39:18.858Z,14656
2016-07-08T06:40:18.869Z,13388
2016-07-08T06:41:18.925Z,11908
2016-07-08T06:42:19.181Z,10752
2016-07-08T06:43:18.880Z,9768
2016-07-08T06:44:18.983Z,9224
2016-07-08T06:45:19.046Z,8968
2016-07-08T06:46:18.907Z,8604
2016-07-08T06:47:19.005Z,8080
2016-07-08T06:48:18.860Z,7936
2016-07-08T06:49:18.894Z,8172
2016-07-08T06:50:18.855Z,8388
2016-07-08T06:51:19.291Z,8688
2016-07-08T06:52:18.865Z,8984
2016-07-08T06:53:18.869Z,9156
2016-07-08T06:54:18.864Z,8892
2016-07-08T06:55:18.936Z,8280
2016-07-08T06:56:19.644Z,7964
2016-07-08T06:57:18.880Z,8076
2016-07-08T06:58:18.930Z,8592
2016-07-08T06:59:18.877Z,9380
2016-07-08T07:00:18.957Z,10224
2016-07-08T07:01:19.956Z,11068
2016-07-08T07:02:18.993Z,11884
2016-07-08T07:03:18.879Z,12640
2016-07-08T07:04:19.588Z,12864
2016-07-08T07:05:20.454Z,12368
2016-07-08T07:06:19.351Z,11480
2016-07-08T07:07:18.888Z,10464
2016-07-08T07:08:19.032Z,9780
2016-07-08T07:09:18.883Z,9600
2016-07-08T07:10:18.911Z,9220
2016-07-08T07:11:18.921Z,8808
2016-07-08T07:12:18.890Z,8700
2016-07-08T07:13:18.892Z,8780
2016-07-08T07:14:18.880Z,8808
2016-07-08T07:15:18.866Z,8852
2016-07-08T07:16:19.009Z,8724
2016-07-08T07:17:18.955Z,8200
2016-07-08T07:18:18.864Z,7664
2016-07-08T07:19:18.862Z,7428
2016-07-08T07:20:18.952Z,7304
2016-07-08T07:21:18.879Z,7188
2016-07-08T07:22:19.134Z,7064
2016-07-08T07:23:19.036Z,7080
2016-07-08T07:24:19.495Z,7264
2016-07-08T07:25:19.076Z,7640
2016-07-08T07:26:19.771Z,7864
2016-07-08T07:27:19.355Z,8000
2016-07-08T07:28:18.904Z,8304
2016-07-08T07:29:18.934Z,8320
2016-07-08T07:30:19.642Z,8140
2016-07-08T07:31:20.182Z,7768
2016-07-08T07:32:21.606Z,7228
2016-07-08T07:33:19.301Z,6792
2016-07-08T07:34:23.605Z,6512
2016-07-08T07:35:20.636Z,6328
2016-07-08T07:36:25.638Z,6168
2016-07-08T07:37:19.189Z,6028
2016-07-08T07:38:19.043Z,5936
2016-07-08T07:39:19.286Z,5892
2016-07-08T07:40:20.039Z,5908
2016-07-08T07:41:18.925Z,5924
2016-07-08T07:42:19.183Z,5932
2016-07-08T07:43:19.057Z,6092
2016-07-08T07:44:20.150Z,6396
2016-07-08T07:45:18.998Z,6716
2016-07-08T07:46:19.524Z,6996
2016-07-08T07:47:20.086Z,7208
2016-07-08T07:48:19.011Z,7328
2016-07-08T07:49:18.865Z,7296
2016-07-08T07:50:19.003Z,7252
2016-07-08T07:51:19.152Z,7248
2016-07-08T07:52:19.232Z,7324
2016-07-08T07:53:18.958Z,7488
2016-07-08T07:54:18.951Z,7732
2016-07-08T07:55:19.139Z,8128
2016-07-08T07:56:18.913Z,8496
2016-07-08T07:57:18.993Z,8700
2016-07-08T07:58:18.953Z,8772
2016-07-08T07:59:18.892Z,8916
2016-07-08T08:00:20.504Z,9040
2016-07-08T08:01:18.940Z,9188
2016-07-08T08:02:19.023Z,9368
2016-07-08T08:03:19.065Z,9576
2016-07-08T08:04:18.935Z,9864
2016-07-08T08:05:18.927Z,10324
2016-07-08T08:06:19.856Z,11036
2016-07-08T08:07:18.932Z,11852
2016-07-08T08:08:18.909Z,12632
2016-07-08T08:09:18.950Z,14516
2016-07-08T08:10:18.907Z,17312
2016-07-08T08:11:18.914Z,16256
2016-07-08T08:12:18.914Z,14064
2016-07-08T08:13:18.922Z,12740
2016-07-08T08:14:18.872Z,12356
2016-07-08T08:15:18.921Z,11664
2016-07-08T08:16:19.074Z,11512
2016-07-08T08:17:19.015Z,11732
2016-07-08T08:18:18.896Z,11960
2016-07-08T08:19:19.046Z,12660
2016-07-08T08:20:19.072Z,14684
2016-07-08T08:21:19.016Z,16672
2016-07-08T08:22:19.043Z,16960
2016-07-08T08:23:19.026Z,21312
2016-07-08T08:24:18.948Z,22400
2016-07-08T08:25:18.933Z,23584
2016-07-08T08:26:18.917Z,23680
2016-07-08T08:27:19.025Z,21888
2016-07-08T08:37:19.783Z,18592
2016-07-08T08:37:36.300Z,11196
2016-07-08T08:38:36.294Z,11288
2016-07-08T08:39:36.265Z,11668
2016-07-08T08:40:36.435Z,12080
2016-07-08T08:41:36.235Z,11804
2016-07-08T08:42:36.610Z,11488
2016-07-08T08:43:36.422Z,10816
2016-07-08T08:44:36.449Z,10684
2016-07-08T08:45:36.255Z,10724
2016-07-08T08:46:46.772Z,10152
2016-07-08T08:47:36.319Z,9692
2016-07-08T08:48:36.234Z,10104
2016-07-08T08:49:36.272Z,11340
2016-07-08T08:50:36.357Z,12972
2016-07-08T08:51:36.224Z,14832
2016-07-08T08:52:36.287Z,15276
2016-07-08T08:53:36.270Z,13348
2016-07-08T08:54:36.246Z,11560
2016-07-08T08:55:36.370Z,10204
2016-07-08T08:56:36.229Z,8960
2016-07-08T08:57:36.224Z,7720
2016-07-08T08:58:41.500Z,6488
2016-07-08T08:59:43.164Z,5556
2016-07-08T09:00:36.634Z,4884
2016-07-08T09:01:36.223Z,4292
2016-07-08T09:02:36.328Z,3840
2016-07-08T09:03:36.306Z,3548
2016-07-08T09:04:36.850Z,3452
2016-07-08T09:05:36.284Z,3508
2016-07-08T09:06:36.277Z,3528
2016-07-08T09:07:36.534Z,3380
2016-07-08T09:08:36.366Z,3556
2016-07-08T09:09:36.478Z,4504
2016-07-08T09:10:36.423Z,5708
2016-07-08T09:11:36.303Z,6680
2016-07-08T09:12:36.330Z,7552
2016-07-08T09:13:36.275Z,8260
2016-07-08T09:14:37.112Z,8844
2016-07-08T09:15:36.444Z,9536
2016-07-08T09:16:36.300Z,10520
2016-07-08T09:17:36.311Z,11544
2016-07-08T09:18:36.371Z,11804
2016-07-08T09:19:36.262Z,11476
2016-07-08T09:20:36.357Z,11004
2016-07-08T09:21:36.386Z,10004
2016-07-08T09:22:36.255Z,9396
2016-07-08T09:23:36.328Z,8960
2016-07-08T09:24:36.340Z,8416
2016-07-08T09:25:37.064Z,8040
2016-07-08T09:26:36.481Z,8044
2016-07-08T09:27:36.854Z,8208
2016-07-08T09:28:36.381Z,8648
2016-07-08T09:29:36.375Z,9016
2016-07-08T09:30:36.291Z,9100
2016-07-08T09:31:36.286Z,8924
2016-07-08T09:32:36.466Z,8792
2016-07-08T09:33:36.248Z,8772
2016-07-08T09:34:36.239Z,8924
2016-07-08T09:35:36.336Z,9236
2016-07-08T09:36:36.295Z,9532
2016-07-08T09:37:37.933Z,9756
2016-07-08T09:38:36.287Z,10156
2016-07-08T09:39:36.349Z,10948
2016-07-08T09:40:36.488Z,12072
2016-07-08T09:41:36.361Z,13180
2016-07-08T09:42:36.344Z,14276
2016-07-08T09:43:36.352Z,15164
2016-07-08T09:44:37.301Z,16416
2016-07-08T09:45:36.725Z,15292
2016-07-08T09:46:36.825Z,15108
2016-07-08T09:47:36.645Z,14312
2016-07-08T09:48:36.498Z,13528
2016-07-08T09:49:36.302Z,12592
2016-07-08T09:50:36.280Z,12280
2016-07-08T09:51:36.335Z,12216
2016-07-08T09:52:36.364Z,12436
2016-07-08T09:53:36.549Z,12584
2016-07-08T09:54:36.309Z,12572
2016-07-08T09:55:37.972Z,12724
2016-07-08T09:56:36.324Z,12652
2016-07-08T09:57:36.502Z,11760
2016-07-08T09:58:36.675Z,11076
2016-07-08T09:59:36.313Z,11256
2016-07-08T10:00:36.427Z,11572
2016-07-08T10:01:36.618Z,11400
2016-07-08T10:02:36.770Z,11264
2016-07-08T10:03:37.456Z,11072
2016-07-08T10:04:36.580Z,11020
2016-07-08T10:05:36.317Z,10404
2016-07-08T10:06:36.318Z,9692
2016-07-08T10:07:37.381Z,9408
2016-07-08T10:08:39.213Z,9336
2016-07-08T10:09:41.626Z,9380
2016-07-08T10:10:36.656Z,9516
2016-07-08T10:11:36.373Z,9536
2016-07-08T10:12:36.289Z,9540
2016-07-08T10:13:36.506Z,9728
2016-07-08T10:14:38.370Z,9876
2016-07-08T10:15:36.324Z,10124
2016-07-08T10:16:36.409Z,10212
2016-07-08T10:17:37.161Z,10152
2016-07-08T10:18:37.224Z,9912
2016-07-08T10:19:40.805Z,9620
2016-07-08T10:20:36.337Z,9300
2016-07-08T10:21:42.569Z,9000
2016-07-08T10:22:36.453Z,8980
2016-07-08T10:23:36.780Z,8936
2016-07-08T10:24:44.681Z,9008
2016-07-08T10:25:36.354Z,8976
2016-07-08T10:26:38.715Z,9024
2016-07-08T10:27:36.923Z,9332
2016-07-08T10:28:36.721Z,9848
2016-07-08T10:29:36.513Z,10472
2016-07-08T10:30:37.830Z,10956
2016-07-08T10:31:36.412Z,11052
2016-07-08T10:32:36.386Z,11264
2016-07-08T10:33:40.102Z,11832
2016-07-08T10:34:37.514Z,13028
2016-07-08T10:35:37.058Z,14108
2016-07-08T10:36:36.627Z,14800
2016-07-08T10:37:36.557Z,16512
2016-07-08T10:38:37.718Z,15840
2016-07-08T10:39:36.477Z,15840
2016-07-08T10:40:36.447Z,14452
2016-07-08T10:41:36.948Z,13276
2016-07-08T10:42:37.084Z,11352
2016-07-08T10:43:47.355Z,9908
2016-07-08T10:44:37.226Z,9324
2016-07-08T10:45:36.832Z,8936
2016-07-08T10:46:36.778Z,9216
2016-07-08T10:47:36.500Z,9576
2016-07-08T10:48:38.124Z,9616
2016-07-08T10:49:36.679Z,9792
2016-07-08T10:50:37.618Z,10576
2016-07-08T10:51:36.419Z,11504
2016-07-08T10:52:36.458Z,12244
2016-07-08T10:53:36.433Z,12400
2016-07-08T10:54:36.361Z,12920
2016-07-08T10:55:36.309Z,12720
2016-07-08T10:56:36.575Z,10964
2016-07-08T10:57:36.343Z,9312
2016-07-08T10:58:37.393Z,9352
2016-07-08T10:59:36.344Z,10092
2016-07-08T11:00:40.214Z,10752
2016-07-08T11:01:39.024Z,9532
2016-07-08T11:02:44.719Z,13760
2016-07-08T11:03:36.448Z,16352
2016-07-08T11:04:36.401Z,16928
2016-07-08T11:05:36.370Z,16832
2016-07-08T11:06:41.397Z,14056
2016-07-08T11:07:44.197Z,12444
2016-07-08T11:08:36.860Z,9588
2016-07-08T11:09:39.168Z,8704
2016-07-08T11:10:48.246Z,7604
2016-07-08T11:11:36.446Z,7132
2016-07-08T11:12:36.675Z,7440
2016-07-08T11:13:37.302Z,7172
2016-07-08T11:14:38.438Z,7960
2016-07-08T11:15:37.584Z,9380
2016-07-08T11:16:36.681Z,9880
2016-07-08T11:17:36.582Z,9360
2016-07-08T11:20:29.575Z,9460
2016-07-08T11:20:53.789Z,9004
2016-07-08T11:35:03.443Z,10656
2016-07-08T11:36:03.446Z,10512
2016-07-08T11:37:03.414Z,10540
2016-07-08T11:38:03.647Z,10180
2016-07-08T11:39:03.512Z,10416
2016-07-08T11:40:03.382Z,10312
2016-07-08T11:41:03.337Z,10020
2016-07-08T11:42:23.627Z,10320
2016-07-08T11:43:09.172Z,10464
2016-07-08T11:44:03.499Z,10644
2016-07-08T11:45:14.687Z,10780
2016-07-08T11:46:03.892Z,10708
2016-07-08T11:47:16.003Z,10776
2016-07-08T11:48:04.461Z,11176
2016-07-08T11:49:03.402Z,11416
2016-07-08T11:50:09.463Z,11952
2016-07-08T11:51:03.685Z,13076
2016-07-08T11:52:06.143Z,13176
2016-07-08T11:53:11.552Z,13548
2016-07-08T11:54:03.584Z,13176
2016-07-08T11:55:03.407Z,12788
2016-07-08T11:56:05.019Z,13488
2016-07-08T11:57:07.076Z,12776
2016-07-08T11:58:03.382Z,13840
2016-07-08T11:59:03.481Z,15308
2016-07-08T12:00:03.443Z,16768
2016-07-08T12:01:08.402Z,16384
2016-07-08T12:02:03.471Z,16352
2016-07-08T12:03:03.660Z,16480
2016-07-08T12:04:03.418Z,18080
2016-07-08T12:05:03.802Z,16960
2016-07-08T12:06:15.915Z,14972
2016-07-08T12:07:11.298Z,14884
2016-07-08T12:08:14.311Z,15296
2016-07-08T12:09:03.477Z,15872
2016-07-08T12:10:03.378Z,17152
2016-07-08T12:11:03.597Z,17280
2016-07-08T12:12:03.782Z,16288
2016-07-08T12:13:06.631Z,16992
2016-07-08T12:14:06.793Z,17184
2016-07-08T12:15:03.400Z,22080
2016-07-08T12:16:04.350Z,24448
2016-07-08T12:17:03.653Z,23584
2016-07-08T12:18:03.389Z,22528
2016-07-08T12:19:03.412Z,30656
2016-07-08T12:20:03.428Z,32704
2016-07-08T12:21:03.607Z,29312
2016-07-08T12:22:03.429Z,31744
2016-07-08T12:23:03.391Z,45152
2016-07-08T12:24:52.174Z,50432
2016-07-08T12:25:08.725Z,40320
2016-07-08T12:26:34.330Z,68320
2016-07-08T12:27:44.098Z,82816
2016-07-08T12:28:22.405Z,65984
2016-07-08T12:29:11.018Z,62656
2016-07-08T12:30:25.810Z,29312
2016-07-08T12:31:08.793Z,31008
2016-07-08T12:32:14.265Z,34688
2016-07-08T12:33:40.109Z,41152
2016-07-08T12:35:08.188Z,21440
2016-07-08T12:35:24.877Z,26400
2016-07-08T12:36:29.256Z,47840
2016-07-08T12:37:24.760Z,18848
2016-07-08T12:38:50.639Z,16832
2016-07-08T12:39:40.244Z,18592
2016-07-08T12:40:25.512Z,24000
2016-07-08T12:41:29.407Z,31840
2016-07-08T12:42:24.961Z,30944
2016-07-08T12:43:39.532Z,15400
2016-07-08T12:44:25.238Z,12544
2016-07-08T12:45:28.118Z,10584
2016-07-08T12:46:25.935Z,8704
2016-07-08T12:47:25.419Z,8000
2016-07-08T12:48:25.008Z,9572
2016-07-08T12:49:41.314Z,11580
2016-07-08T12:50:24.754Z,12436
2016-07-08T12:51:25.595Z,12640
2016-07-08T12:52:25.387Z,12068
2016-07-08T12:53:45.624Z,12920
2016-07-08T12:54:25.138Z,15552
2016-07-08T12:55:38.366Z,12984
2016-07-08T12:56:24.742Z,14812
2016-07-08T12:57:25.076Z,14236
2016-07-08T12:58:27.991Z,13788
2016-07-08T13:00:25.052Z,14812
2016-07-08T13:00:51.558Z,14040
2016-07-08T13:02:05.814Z,15596
2016-07-08T13:02:58.738Z,16256
2016-07-08T13:03:43.748Z,15112
2016-07-08T13:04:54.251Z,13520
2016-07-08T13:05:49.950Z,15184
2016-07-08T13:07:01.938Z,14380
2016-07-08T13:07:42.617Z,13716
2016-07-08T13:08:42.227Z,14120
2016-07-08T13:09:42.420Z,18528
2016-07-08T13:10:44.529Z,15696
2016-07-08T13:11:42.226Z,11908
2016-07-08T13:13:18.443Z,12128
2016-07-08T13:13:42.496Z,11800
2016-07-08T13:14:42.620Z,11700
2016-07-08T13:15:57.377Z,12664
2016-07-08T13:16:43.588Z,12700
2016-07-08T13:17:47.272Z,10876
2016-07-08T13:18:42.287Z,9600
2016-07-08T13:20:17.281Z,7780
2016-07-08T13:21:05.539Z,7336
2016-07-08T13:26:27.573Z,7588
2016-07-08T13:26:45.399Z,7052
2016-07-08T13:28:27.615Z,6096
2016-07-08T13:29:10.756Z,6680
2016-07-08T13:30:59.375Z,6636
2016-07-08T13:31:15.918Z,6440
2016-07-08T13:32:37.120Z,7168
2016-07-08T13:33:41.188Z,8476
2016-07-08T13:34:18.906Z,9048
2016-07-08T13:35:16.047Z,9228
2016-07-08T13:36:20.124Z,10036
2016-07-08T13:37:57.866Z,11544
2016-07-08T13:38:19.640Z,11692
2016-07-08T13:39:23.327Z,11540
2016-07-08T13:40:34.085Z,11768
2016-07-08T13:41:49.009Z,11808
2016-07-08T13:42:30.660Z,11244
2016-07-08T13:43:19.651Z,10408
2016-07-08T13:44:19.427Z,9488
2016-07-08T13:45:20.495Z,9292
2016-07-08T13:46:21.449Z,9648
2016-07-08T13:47:19.108Z,9896
2016-07-08T13:48:19.501Z,10068
2016-07-08T13:50:24.868Z,8560
2016-07-08T13:51:19.014Z,9364
2016-07-08T13:52:19.467Z,9780
2016-07-08T13:53:19.691Z,10452
2016-07-08T13:54:19.241Z,10512
2016-07-08T13:55:19.818Z,10384
2016-07-08T13:56:19.602Z,9896
2016-07-08T13:57:18.994Z,9216
2016-07-08T13:58:19.063Z,8528
2016-07-08T13:59:19.009Z,8352
2016-07-08T14:00:19.208Z,8364
2016-07-08T14:01:19.315Z,8516
2016-07-08T14:02:18.997Z,8552
2016-07-08T14:03:23.429Z,8340
2016-07-08T14:04:20.143Z,7920
2016-07-08T14:05:20.080Z,7996
2016-07-08T14:06:19.509Z,8348
2016-07-08T14:07:19.104Z,8304
2016-07-08T14:08:19.379Z,8112
2016-07-08T14:09:19.558Z,9020
2016-07-08T14:10:18.993Z,10016
2016-07-08T14:11:25.693Z,11588